Kihou Maru — JD3372 — position and weather

sailwx.info

Track history (hours):
 
Tides and Currents Weather Stations Pressure Air Temp Water Temp Dewpoint Dewpoint Depression Visibility Wind Speed Wind Dir Waves Ship Positions

Kihou Maru

Last reported at 2018-Feb-22 03:50 UTC. Time now 2018-Feb-23 12:33 UTC.
Position N 34°42' E 136°52'.

Length 58 m.

Type: Cargo ship. MMSI: 431003527.

Date/timePositionNaut miles runAvg speedWind from/ knotsBaromVisibWave heightAir tempDewpointWater temp
2018-Feb-22 03:50N 34°42' E 136°52'411.9
2018-Feb-22 03:30N 34°45' E 136°49'612.0
2018-Feb-22 03:00N 34°51' E 136°47'612.0
2018-Feb-22 02:30N 34°57' E 136°47'611.7
2018-Feb-22 02:00N 35°02' E 136°50'1 2.5
2018-Feb-22 01:28N 35°04' E 136°50'0 0.0
2018-Feb-22 00:58N 35°04' E 136°50'0 0.0
2018-Feb-22 00:28N 35°04' E 136°50'0 0.0
2018-Feb-21 23:55N 35°04' E 136°50'0 0.0
2018-Feb-21 23:28N 35°04' E 136°50'0 0.0
2018-Feb-21 22:58N 35°04' E 136°50'0 0.7
2018-Feb-21 22:30N 35°03' E 136°50'2 4.7
2018-Feb-21 21:59N 35°05' E 136°52'0 0.0
2018-Feb-21 21:29N 35°05' E 136°52'0 0.0
2018-Feb-21 20:59N 35°05' E 136°52'0 0.0
2018-Feb-21 20:29N 35°05' E 136°52'0 0.0
2018-Feb-21 19:59N 35°05' E 136°52'0 0.0
2018-Feb-21 19:29N 35°05' E 136°52'0 0.0
2018-Feb-21 18:59N 35°05' E 136°52'0 0.0
2018-Feb-21 18:29N 35°05' E 136°52'0 0.0
2018-Feb-21 17:59N 35°05' E 136°52'0 0.0
2018-Feb-21 17:29N 35°05' E 136°52'0 0.0
2018-Feb-21 16:59N 35°05' E 136°52'0 0.0
2018-Feb-21 16:29N 35°05' E 136°52'0 0.0
2018-Feb-21 15:59N 35°05' E 136°52'0 0.0
2018-Feb-21 15:29N 35°05' E 136°52'0 0.0
2018-Feb-21 14:59N 35°05' E 136°52'0 0.0
2018-Feb-21 14:29N 35°05' E 136°52'0 0.0
2018-Feb-21 13:59N 35°05' E 136°52'0 0.0
2018-Feb-21 13:29N 35°05' E 136°52'0 0.0
2018-Feb-21 12:59N 35°05' E 136°52'0 0.0
2018-Feb-21 12:29N 35°05' E 136°52'0 0.0
2018-Feb-21 11:59N 35°05' E 136°52'0 0.0
2018-Feb-21 11:29N 35°05' E 136°52'0 0.0
2018-Feb-21 10:59N 35°05' E 136°52'0 0.0
2018-Feb-21 10:29N 35°05' E 136°52'0 0.0
2018-Feb-21 09:59N 35°05' E 136°52'0 0.0
2018-Feb-21 09:29N 35°05' E 136°52'0 0.0
2018-Feb-21 08:59N 35°05' E 136°52'0 0.0
2018-Feb-21 08:29N 35°05' E 136°52'0 0.0
2018-Feb-21 07:59N 35°05' E 136°52'0 0.0
2018-Feb-21 07:29N 35°05' E 136°52'0 0.0
2018-Feb-21 06:59N 35°05' E 136°52'0 0.0
2018-Feb-21 06:29N 35°05' E 136°52'0 0.0
2018-Feb-21 05:59N 35°05' E 136°52'0 0.0
2018-Feb-21 05:29N 35°05' E 136°52'0 0.0
2018-Feb-21 04:59N 35°05' E 136°52'0 0.0
2018-Feb-21 04:29N 35°05' E 136°52'0 0.0
2018-Feb-21 03:59N 35°05' E 136°52'0 0.0
2018-Feb-21 03:29N 35°05' E 136°52'0 0.0
2018-Feb-21 02:59N 35°05' E 136°52'0 0.1
2018-Feb-21 02:29N 35°05' E 136°52'3 5.7
2018-Feb-21 02:00N 35°02' E 136°51'510.7
2018-Feb-21 01:30N 34°58' E 136°48'510.5
2018-Feb-21 01:00N 34°52' E 136°47'510.8
2018-Feb-21 00:30N 34°47' E 136°49'108 6.8
2018-Feb-20 08:41N 34°03' E 134°49'211.6
2018-Feb-20 08:30N 34°05' E 134°48'29 0.6
2018-Feb-18 09:29N 34°29' E 134°28'711.3
2018-Feb-18 08:54N 34°33' E 134°34'510.9
2018-Feb-18 08:29N 34°35' E 134°39'710.8
2018-Feb-18 07:50N 34°40' E 134°45'3 0.3
2018-Feb-17 21:23N 34°42' E 134°48'3 1.2
2018-Feb-17 19:14N 34°40' E 134°50'3 9.6
2018-Feb-17 18:55N 34°38' E 134°53'4 9.8
2018-Feb-17 18:31N 34°38' E 134°58'4 7.8
2018-Feb-17 18:00N 34°37' E 135°02'4 8.8
2018-Feb-17 17:31N 34°36' E 135°08'611.1
2018-Feb-17 17:01N 34°37' E 135°14'611.9
2018-Feb-17 16:31N 34°39' E 135°21'4 7.0
2018-Feb-17 15:58N 34°40' E 135°26'0 0.0
2018-Feb-17 15:28N 34°40' E 135°26'0 0.0
2018-Feb-17 14:58N 34°40' E 135°26'0 0.0
2018-Feb-17 14:28N 34°40' E 135°26'0 0.0
2018-Feb-17 13:58N 34°40' E 135°26'0 0.0
2018-Feb-17 13:28N 34°40' E 135°26'0 0.0
2018-Feb-17 12:58N 34°40' E 135°26'0 0.0
2018-Feb-17 12:28N 34°40' E 135°26'0 0.0
2018-Feb-17 11:58N 34°40' E 135°26'0 0.0
2018-Feb-17 11:28N 34°40' E 135°26'0 0.0
2018-Feb-17 10:58N 34°40' E 135°26'0 0.0
2018-Feb-17 10:28N 34°40' E 135°26'0 0.0
2018-Feb-17 09:58N 34°40' E 135°26'0 0.0
2018-Feb-17 09:28N 34°40' E 135°26'0 0.0
2018-Feb-17 08:58N 34°40' E 135°26'0 0.0
2018-Feb-17 08:28N 34°40' E 135°26'0 0.0
2018-Feb-17 07:58N 34°40' E 135°26'0 0.0
2018-Feb-17 07:28N 34°40' E 135°26'0 0.0
2018-Feb-17 06:58N 34°40' E 135°26'0 0.5
2018-Feb-17 06:30N 34°39' E 135°26'1 1.5
2018-Feb-17 05:58N 34°40' E 135°27'0 0.0
2018-Feb-17 05:28N 34°40' E 135°27'0 0.0
2018-Feb-17 04:58N 34°40' E 135°27'0 0.0
2018-Feb-17 04:28N 34°40' E 135°27'0 0.0
2018-Feb-17 03:58N 34°40' E 135°27'0 0.0
2018-Feb-17 03:28N 34°40' E 135°27'0 0.0
2018-Feb-17 02:58N 34°40' E 135°27'0 0.0
2018-Feb-17 02:28N 34°40' E 135°27'0 0.0
2018-Feb-17 01:58N 34°40' E 135°27'0 0.0
2018-Feb-17 01:28N 34°40' E 135°27'2 4.8
2018-Feb-17 00:57N 34°39' E 135°24'510.2
2018-Feb-17 00:29N 34°37' E 135°18'511.3
2018-Feb-17 00:00N 34°36' E 135°12'611.3
2018-Feb-16 23:29N 34°35' E 135°05'4 8.1
2018-Feb-16 22:59N 34°37' E 135°01'4 7.7
2018-Feb-16 22:30N 34°36' E 134°56'5 9.5
2018-Feb-16 22:00N 34°34' E 134°51'510.5
2018-Feb-16 21:30N 34°32' E 134°45'611.0
2018-Feb-16 20:58N 34°30' E 134°39'511.1
2018-Feb-16 20:30N 34°28' E 134°33'9611.4
2018-Feb-16 12:02N 34°09' E 132°38'111.1
2018-Feb-16 11:59N 34°09' E 132°38'510.5
2018-Feb-16 11:30N 34°12' E 132°32'2 3.7
2018-Feb-16 10:55N 34°14' E 132°32'0 0.0
2018-Feb-16 10:28N 34°14' E 132°32'0 0.1
2018-Feb-16 09:58N 34°14' E 132°32'0 0.0
2018-Feb-16 09:29N 34°14' E 132°32'0 0.0
2018-Feb-16 08:58N 34°14' E 132°32'0 0.1
2018-Feb-16 08:28N 34°14' E 132°32'0 0.0
2018-Feb-16 07:59N 34°14' E 132°32'0 0.0
2018-Feb-16 07:28N 34°14' E 132°32'0 0.0
2018-Feb-16 06:57N 34°14' E 132°32'4 8.3
2018-Feb-16 06:30N 34°17' E 132°30'510.9
2018-Feb-16 06:00N 34°21' E 132°26'1 1.1
2018-Feb-16 05:27N 34°22' E 132°26'0 0.0
2018-Feb-16 04:54N 34°22' E 132°26'0 0.0
2018-Feb-16 04:30N 34°22' E 132°26'0 0.0
2018-Feb-16 04:00N 34°22' E 132°26'0 0.0
2018-Feb-16 03:27N 34°22' E 132°26'0 0.0
2018-Feb-16 03:00N 34°22' E 132°26'0 0.1
2018-Feb-16 02:27N 34°22' E 132°26'0 0.0
2018-Feb-16 01:57N 34°22' E 132°26'0 0.1
2018-Feb-16 01:27N 34°22' E 132°26'0 0.0
2018-Feb-16 01:00N 34°22' E 132°26'0 0.1
2018-Feb-16 00:30N 34°22' E 132°26'1 1.7
2018-Feb-16 00:00N 34°21' E 132°26'510.3
2018-Feb-15 23:30N 34°17' E 132°30'3 5.6
2018-Feb-15 22:59N 34°15' E 132°33'0 0.0
2018-Feb-15 22:29N 34°15' E 132°33'0 0.0
2018-Feb-15 21:53N 34°15' E 132°33'0 0.0
2018-Feb-15 21:29N 34°15' E 132°33'0 0.0
2018-Feb-15 20:59N 34°15' E 132°33'0 0.0
2018-Feb-15 20:29N 34°15' E 132°33'0 0.0
2018-Feb-15 19:59N 34°15' E 132°33'0 0.0
2018-Feb-15 19:23N 34°15' E 132°33'0 0.0
2018-Feb-15 18:59N 34°15' E 132°33'0 0.0
2018-Feb-15 18:29N 34°15' E 132°33'0 0.0
2018-Feb-15 17:59N 34°15' E 132°33'0 0.0
2018-Feb-15 17:23N 34°15' E 132°33'0 0.0
2018-Feb-15 16:56N 34°15' E 132°33'0 0.0
2018-Feb-15 16:29N 34°15' E 132°33'0 0.0
2018-Feb-15 15:59N 34°15' E 132°33'0 0.0
2018-Feb-15 15:29N 34°15' E 132°33'0 0.0
2018-Feb-15 14:59N 34°15' E 132°33'0 0.0
2018-Feb-15 13:47N 34°15' E 132°33'0 0.0
2018-Feb-15 13:29N 34°15' E 132°33'0 0.0
2018-Feb-15 12:50N 34°15' E 132°33'0 0.0
2018-Feb-15 12:29N 34°15' E 132°33'0 0.0
2018-Feb-15 11:59N 34°15' E 132°33'0 0.0
2018-Feb-15 11:29N 34°15' E 132°33'0 0.0
2018-Feb-15 10:59N 34°15' E 132°33'0 0.0
2018-Feb-15 10:23N 34°15' E 132°33'0 0.0
2018-Feb-15 09:47N 34°15' E 132°33'0 0.2
2018-Feb-15 09:29N 34°15' E 132°32'3 6.4
2018-Feb-15 09:00N 34°11' E 132°33'9910.5
2018-Feb-14 23:34N 34°29' E 134°31'111.2
2018-Feb-14 23:30N 34°29' E 134°32'1011.9
2018-Feb-14 22:39N 34°33' E 134°43'212.5
2018-Feb-14 22:29N 34°34' E 134°46'713.7
2018-Feb-14 22:00N 34°36' E 134°53'713.5
2018-Feb-14 21:31N 34°37' E 135°01'611.7
2018-Feb-14 21:00N 34°36' E 135°08'511.0
2018-Feb-14 20:30N 34°37' E 135°15'511.1
2018-Feb-14 20:01N 34°36' E 135°21'5 9.5
2018-Feb-14 19:30N 34°35' E 135°27'1 1.0
2018-Feb-14 18:59N 34°34' E 135°27'0 0.0
2018-Feb-14 18:29N 34°34' E 135°27'0 0.0
2018-Feb-14 17:59N 34°34' E 135°27'0 0.0
2018-Feb-14 17:29N 34°34' E 135°27'0 0.0
2018-Feb-14 16:59N 34°34' E 135°27'0 0.0
2018-Feb-14 16:29N 34°34' E 135°27'0 0.0
2018-Feb-14 15:59N 34°34' E 135°27'0 0.0
2018-Feb-14 15:29N 34°34' E 135°27'0 0.0
2018-Feb-14 14:59N 34°34' E 135°27'0 0.0
2018-Feb-14 14:29N 34°34' E 135°27'0 0.0
2018-Feb-14 13:59N 34°34' E 135°27'0 0.0
2018-Feb-14 13:29N 34°34' E 135°27'0 0.0
2018-Feb-14 12:59N 34°34' E 135°27'0 0.0
2018-Feb-14 12:29N 34°34' E 135°27'0 0.0
2018-Feb-14 11:59N 34°34' E 135°27'0 0.0
2018-Feb-14 11:29N 34°34' E 135°27'0 0.0
2018-Feb-14 10:59N 34°34' E 135°27'0 0.0
2018-Feb-14 10:29N 34°34' E 135°27'0 0.0
2018-Feb-14 09:59N 34°34' E 135°27'0 0.0
2018-Feb-14 09:29N 34°34' E 135°27'0 0.0
2018-Feb-14 08:59N 34°34' E 135°27'4 8.1
2018-Feb-14 08:30N 34°36' E 135°23'510.7
2018-Feb-14 08:00N 34°35' E 135°17'511.0
2018-Feb-14 07:30N 34°35' E 135°10'611.5
2018-Feb-14 07:00N 34°36' E 135°03'612.1
2018-Feb-14 06:28N 34°36' E 134°55'612.3
2018-Feb-14 05:58N 34°33' E 134°49'511.6
2018-Feb-14 05:30N 34°31' E 134°42'611.6
2018-Feb-14 05:00N 34°29' E 134°36'14 0.6
2018-Feb-13 05:03N 34°39' E 134°49'1 9.9
2018-Feb-13 04:55N 34°38' E 134°50'4 9.0
2018-Feb-13 04:30N 34°38' E 134°55'5 9.4
2018-Feb-13 04:00N 34°38' E 135°00'4 8.3
2018-Feb-13 03:30N 34°36' E 135°05'510.5
2018-Feb-13 03:00N 34°36' E 135°12'510.8
2018-Feb-13 02:30N 34°36' E 135°18'510.0
2018-Feb-13 02:00N 34°38' E 135°24'1 1.2
2018-Feb-13 01:29N 34°38' E 135°25'0 0.0
2018-Feb-13 00:59N 34°38' E 135°25'0 0.0
2018-Feb-13 00:29N 34°38' E 135°25'0 0.0
2018-Feb-12 23:59N 34°38' E 135°25'0 0.0
2018-Feb-12 23:29N 34°38' E 135°25'0 0.0
2018-Feb-12 22:59N 34°38' E 135°25'1 2.2
2018-Feb-12 22:30N 34°38' E 135°24'3 6.1
2018-Feb-12 21:59N 34°40' E 135°27'0 0.0
2018-Feb-12 21:29N 34°40' E 135°27'0 0.0
2018-Feb-12 20:59N 34°40' E 135°27'0 0.0
2018-Feb-12 20:29N 34°40' E 135°27'0 0.0
2018-Feb-12 19:59N 34°40' E 135°27'0 0.0
2018-Feb-12 19:29N 34°40' E 135°27'0 0.0
2018-Feb-12 18:59N 34°40' E 135°27'0 0.0
2018-Feb-12 18:29N 34°40' E 135°27'0 0.0
2018-Feb-12 17:56N 34°40' E 135°27'0 0.0
2018-Feb-12 17:29N 34°40' E 135°27'0 0.0
2018-Feb-12 16:59N 34°40' E 135°27'0 0.0
2018-Feb-12 16:29N 34°40' E 135°27'0 0.0
2018-Feb-12 15:59N 34°40' E 135°27'0 0.0
2018-Feb-12 15:17N 34°40' E 135°27'0 0.0
2018-Feb-12 14:59N 34°40' E 135°27'0 0.0
2018-Feb-12 14:29N 34°40' E 135°27'0 0.0
2018-Feb-12 13:59N 34°40' E 135°27'0 0.0
2018-Feb-12 13:26N 34°40' E 135°27'0 0.0
2018-Feb-12 12:59N 34°40' E 135°27'0 0.0
2018-Feb-12 12:29N 34°40' E 135°27'0 0.0
2018-Feb-12 11:59N 34°40' E 135°27'0 0.0
2018-Feb-12 11:29N 34°40' E 135°27'0 0.0
2018-Feb-12 10:59N 34°40' E 135°27'0 0.0
2018-Feb-12 10:29N 34°40' E 135°27'0 0.0
2018-Feb-12 09:59N 34°40' E 135°27'0 0.0
2018-Feb-12 09:29N 34°40' E 135°27'0 0.0
2018-Feb-12 08:56N 34°40' E 135°27'0 0.0
2018-Feb-12 08:29N 34°40' E 135°27'0 0.0
2018-Feb-12 07:59N 34°40' E 135°27'0 0.0
2018-Feb-12 07:26N 34°40' E 135°27'0 0.0
2018-Feb-12 06:59N 34°40' E 135°27'0 0.0
2018-Feb-12 06:29N 34°40' E 135°27'0 0.0
2018-Feb-12 05:59N 34°40' E 135°27'0 0.0
2018-Feb-12 05:26N 34°40' E 135°27'0 0.0
2018-Feb-12 04:59N 34°40' E 135°27'0 0.0
2018-Feb-12 04:29N 34°40' E 135°27'0 0.0
2018-Feb-12 03:59N 34°40' E 135°27'  
Track history (hours):
 
Tides and Currents Weather Stations Pressure Air Temp Water Temp Dewpoint Dewpoint Depression Visibility Wind Speed Wind Dir Waves Ship Positions

Kihou Maru

Last reported at 2018-Feb-22 03:50 UTC. Time now 2018-Feb-23 12:33 UTC.
Position N 34°42' E 136°52'.

Length 58 m.

Type: Cargo ship. MMSI: 431003527.

Date/timePositionNaut miles runAvg speedWind from/ knotsBaromVisibWave heightAir tempDewpointWater temp
2018-Feb-22 03:50N 34°42' E 136°52'411.9
2018-Feb-22 03:30N 34°45' E 136°49'612.0
2018-Feb-22 03:00N 34°51' E 136°47'612.0
2018-Feb-22 02:30N 34°57' E 136°47'611.7
2018-Feb-22 02:00N 35°02' E 136°50'1 2.5
2018-Feb-22 01:28N 35°04' E 136°50'0 0.0
2018-Feb-22 00:58N 35°04' E 136°50'0 0.0
2018-Feb-22 00:28N 35°04' E 136°50'0 0.0
2018-Feb-21 23:55N 35°04' E 136°50'0 0.0
2018-Feb-21 23:28N 35°04' E 136°50'0 0.0
2018-Feb-21 22:58N 35°04' E 136°50'0 0.7
2018-Feb-21 22:30N 35°03' E 136°50'2 4.7
2018-Feb-21 21:59N 35°05' E 136°52'0 0.0
2018-Feb-21 21:29N 35°05' E 136°52'0 0.0
2018-Feb-21 20:59N 35°05' E 136°52'0 0.0
2018-Feb-21 20:29N 35°05' E 136°52'0 0.0
2018-Feb-21 19:59N 35°05' E 136°52'0 0.0
2018-Feb-21 19:29N 35°05' E 136°52'0 0.0
2018-Feb-21 18:59N 35°05' E 136°52'0 0.0
2018-Feb-21 18:29N 35°05' E 136°52'0 0.0
2018-Feb-21 17:59N 35°05' E 136°52'0 0.0
2018-Feb-21 17:29N 35°05' E 136°52'0 0.0
2018-Feb-21 16:59N 35°05' E 136°52'0 0.0
2018-Feb-21 16:29N 35°05' E 136°52'0 0.0
2018-Feb-21 15:59N 35°05' E 136°52'0 0.0
2018-Feb-21 15:29N 35°05' E 136°52'0 0.0
2018-Feb-21 14:59N 35°05' E 136°52'0 0.0
2018-Feb-21 14:29N 35°05' E 136°52'0 0.0
2018-Feb-21 13:59N 35°05' E 136°52'0 0.0
2018-Feb-21 13:29N 35°05' E 136°52'0 0.0
2018-Feb-21 12:59N 35°05' E 136°52'0 0.0
2018-Feb-21 12:29N 35°05' E 136°52'0 0.0
2018-Feb-21 11:59N 35°05' E 136°52'0 0.0
2018-Feb-21 11:29N 35°05' E 136°52'0 0.0
2018-Feb-21 10:59N 35°05' E 136°52'0 0.0
2018-Feb-21 10:29N 35°05' E 136°52'0 0.0
2018-Feb-21 09:59N 35°05' E 136°52'0 0.0
2018-Feb-21 09:29N 35°05' E 136°52'0 0.0
2018-Feb-21 08:59N 35°05' E 136°52'0 0.0
2018-Feb-21 08:29N 35°05' E 136°52'0 0.0
2018-Feb-21 07:59N 35°05' E 136°52'0 0.0
2018-Feb-21 07:29N 35°05' E 136°52'0 0.0
2018-Feb-21 06:59N 35°05' E 136°52'0 0.0
2018-Feb-21 06:29N 35°05' E 136°52'0 0.0
2018-Feb-21 05:59N 35°05' E 136°52'0 0.0
2018-Feb-21 05:29N 35°05' E 136°52'0 0.0
2018-Feb-21 04:59N 35°05' E 136°52'0 0.0
2018-Feb-21 04:29N 35°05' E 136°52'0 0.0
2018-Feb-21 03:59N 35°05' E 136°52'0 0.0
2018-Feb-21 03:29N 35°05' E 136°52'0 0.0
2018-Feb-21 02:59N 35°05' E 136°52'0 0.1
2018-Feb-21 02:29N 35°05' E 136°52'3 5.7
2018-Feb-21 02:00N 35°02' E 136°51'510.7
2018-Feb-21 01:30N 34°58' E 136°48'510.5
2018-Feb-21 01:00N 34°52' E 136°47'510.8
2018-Feb-21 00:30N 34°47' E 136°49'108 6.8
2018-Feb-20 08:41N 34°03' E 134°49'211.6
2018-Feb-20 08:30N 34°05' E 134°48'29 0.6
2018-Feb-18 09:29N 34°29' E 134°28'711.3
2018-Feb-18 08:54N 34°33' E 134°34'510.9
2018-Feb-18 08:29N 34°35' E 134°39'710.8
2018-Feb-18 07:50N 34°40' E 134°45'3 0.3
2018-Feb-17 21:23N 34°42' E 134°48'3 1.2
2018-Feb-17 19:14N 34°40' E 134°50'3 9.6
2018-Feb-17 18:55N 34°38' E 134°53'4 9.8
2018-Feb-17 18:31N 34°38' E 134°58'4 7.8
2018-Feb-17 18:00N 34°37' E 135°02'4 8.8
2018-Feb-17 17:31N 34°36' E 135°08'611.1
2018-Feb-17 17:01N 34°37' E 135°14'611.9
2018-Feb-17 16:31N 34°39' E 135°21'4 7.0
2018-Feb-17 15:58N 34°40' E 135°26'0 0.0
2018-Feb-17 15:28N 34°40' E 135°26'0 0.0
2018-Feb-17 14:58N 34°40' E 135°26'0 0.0
2018-Feb-17 14:28N 34°40' E 135°26'0 0.0
2018-Feb-17 13:58N 34°40' E 135°26'0 0.0
2018-Feb-17 13:28N 34°40' E 135°26'0 0.0
2018-Feb-17 12:58N 34°40' E 135°26'0 0.0
2018-Feb-17 12:28N 34°40' E 135°26'0 0.0
2018-Feb-17 11:58N 34°40' E 135°26'0 0.0
2018-Feb-17 11:28N 34°40' E 135°26'0 0.0
2018-Feb-17 10:58N 34°40' E 135°26'0 0.0
2018-Feb-17 10:28N 34°40' E 135°26'0 0.0
2018-Feb-17 09:58N 34°40' E 135°26'0 0.0
2018-Feb-17 09:28N 34°40' E 135°26'0 0.0
2018-Feb-17 08:58N 34°40' E 135°26'0 0.0
2018-Feb-17 08:28N 34°40' E 135°26'0 0.0
2018-Feb-17 07:58N 34°40' E 135°26'0 0.0
2018-Feb-17 07:28N 34°40' E 135°26'0 0.0
2018-Feb-17 06:58N 34°40' E 135°26'0 0.5
2018-Feb-17 06:30N 34°39' E 135°26'1 1.5
2018-Feb-17 05:58N 34°40' E 135°27'0 0.0
2018-Feb-17 05:28N 34°40' E 135°27'0 0.0
2018-Feb-17 04:58N 34°40' E 135°27'0 0.0
2018-Feb-17 04:28N 34°40' E 135°27'0 0.0
2018-Feb-17 03:58N 34°40' E 135°27'0 0.0
2018-Feb-17 03:28N 34°40' E 135°27'0 0.0
2018-Feb-17 02:58N 34°40' E 135°27'0 0.0
2018-Feb-17 02:28N 34°40' E 135°27'0 0.0
2018-Feb-17 01:58N 34°40' E 135°27'0 0.0
2018-Feb-17 01:28N 34°40' E 135°27'2 4.8
2018-Feb-17 00:57N 34°39' E 135°24'510.2
2018-Feb-17 00:29N 34°37' E 135°18'511.3
2018-Feb-17 00:00N 34°36' E 135°12'611.3
2018-Feb-16 23:29N 34°35' E 135°05'4 8.1
2018-Feb-16 22:59N 34°37' E 135°01'4 7.7
2018-Feb-16 22:30N 34°36' E 134°56'5 9.5
2018-Feb-16 22:00N 34°34' E 134°51'510.5
2018-Feb-16 21:30N 34°32' E 134°45'611.0
2018-Feb-16 20:58N 34°30' E 134°39'511.1
2018-Feb-16 20:30N 34°28' E 134°33'9611.4
2018-Feb-16 12:02N 34°09' E 132°38'111.1
2018-Feb-16 11:59N 34°09' E 132°38'510.5
2018-Feb-16 11:30N 34°12' E 132°32'2 3.7
2018-Feb-16 10:55N 34°14' E 132°32'0 0.0
2018-Feb-16 10:28N 34°14' E 132°32'0 0.1
2018-Feb-16 09:58N 34°14' E 132°32'0 0.0
2018-Feb-16 09:29N 34°14' E 132°32'0 0.0
2018-Feb-16 08:58N 34°14' E 132°32'0 0.1
2018-Feb-16 08:28N 34°14' E 132°32'0 0.0
2018-Feb-16 07:59N 34°14' E 132°32'0 0.0
2018-Feb-16 07:28N 34°14' E 132°32'0 0.0
2018-Feb-16 06:57N 34°14' E 132°32'4 8.3
2018-Feb-16 06:30N 34°17' E 132°30'510.9
2018-Feb-16 06:00N 34°21' E 132°26'1 1.1
2018-Feb-16 05:27N 34°22' E 132°26'0 0.0
2018-Feb-16 04:54N 34°22' E 132°26'0 0.0
2018-Feb-16 04:30N 34°22' E 132°26'0 0.0
2018-Feb-16 04:00N 34°22' E 132°26'0 0.0
2018-Feb-16 03:27N 34°22' E 132°26'0 0.0
2018-Feb-16 03:00N 34°22' E 132°26'0 0.1
2018-Feb-16 02:27N 34°22' E 132°26'0 0.0
2018-Feb-16 01:57N 34°22' E 132°26'0 0.1
2018-Feb-16 01:27N 34°22' E 132°26'0 0.0
2018-Feb-16 01:00N 34°22' E 132°26'0 0.1
2018-Feb-16 00:30N 34°22' E 132°26'1 1.7
2018-Feb-16 00:00N 34°21' E 132°26'510.3
2018-Feb-15 23:30N 34°17' E 132°30'3 5.6
2018-Feb-15 22:59N 34°15' E 132°33'0 0.0
2018-Feb-15 22:29N 34°15' E 132°33'0 0.0
2018-Feb-15 21:53N 34°15' E 132°33'0 0.0
2018-Feb-15 21:29N 34°15' E 132°33'0 0.0
2018-Feb-15 20:59N 34°15' E 132°33'0 0.0
2018-Feb-15 20:29N 34°15' E 132°33'0 0.0
2018-Feb-15 19:59N 34°15' E 132°33'0 0.0
2018-Feb-15 19:23N 34°15' E 132°33'0 0.0
2018-Feb-15 18:59N 34°15' E 132°33'0 0.0
2018-Feb-15 18:29N 34°15' E 132°33'0 0.0
2018-Feb-15 17:59N 34°15' E 132°33'0 0.0
2018-Feb-15 17:23N 34°15' E 132°33'0 0.0
2018-Feb-15 16:56N 34°15' E 132°33'0 0.0
2018-Feb-15 16:29N 34°15' E 132°33'0 0.0
2018-Feb-15 15:59N 34°15' E 132°33'0 0.0
2018-Feb-15 15:29N 34°15' E 132°33'0 0.0
2018-Feb-15 14:59N 34°15' E 132°33'0 0.0
2018-Feb-15 13:47N 34°15' E 132°33'0 0.0
2018-Feb-15 13:29N 34°15' E 132°33'0 0.0
2018-Feb-15 12:50N 34°15' E 132°33'0 0.0
2018-Feb-15 12:29N 34°15' E 132°33'0 0.0
2018-Feb-15 11:59N 34°15' E 132°33'0 0.0
2018-Feb-15 11:29N 34°15' E 132°33'0 0.0
2018-Feb-15 10:59N 34°15' E 132°33'0 0.0
2018-Feb-15 10:23N 34°15' E 132°33'0 0.0
2018-Feb-15 09:47N 34°15' E 132°33'0 0.2
2018-Feb-15 09:29N 34°15' E 132°32'3 6.4
2018-Feb-15 09:00N 34°11' E 132°33'9910.5
2018-Feb-14 23:34N 34°29' E 134°31'111.2
2018-Feb-14 23:30N 34°29' E 134°32'1011.9
2018-Feb-14 22:39N 34°33' E 134°43'212.5
2018-Feb-14 22:29N 34°34' E 134°46'713.7
2018-Feb-14 22:00N 34°36' E 134°53'713.5
2018-Feb-14 21:31N 34°37' E 135°01'611.7
2018-Feb-14 21:00N 34°36' E 135°08'511.0
2018-Feb-14 20:30N 34°37' E 135°15'511.1
2018-Feb-14 20:01N 34°36' E 135°21'5 9.5
2018-Feb-14 19:30N 34°35' E 135°27'1 1.0
2018-Feb-14 18:59N 34°34' E 135°27'0 0.0
2018-Feb-14 18:29N 34°34' E 135°27'0 0.0
2018-Feb-14 17:59N 34°34' E 135°27'0 0.0
2018-Feb-14 17:29N 34°34' E 135°27'0 0.0
2018-Feb-14 16:59N 34°34' E 135°27'0 0.0
2018-Feb-14 16:29N 34°34' E 135°27'0 0.0
2018-Feb-14 15:59N 34°34' E 135°27'0 0.0
2018-Feb-14 15:29N 34°34' E 135°27'0 0.0
2018-Feb-14 14:59N 34°34' E 135°27'0 0.0
2018-Feb-14 14:29N 34°34' E 135°27'0 0.0
2018-Feb-14 13:59N 34°34' E 135°27'0 0.0
2018-Feb-14 13:29N 34°34' E 135°27'0 0.0
2018-Feb-14 12:59N 34°34' E 135°27'0 0.0
2018-Feb-14 12:29N 34°34' E 135°27'0 0.0
2018-Feb-14 11:59N 34°34' E 135°27'0 0.0
2018-Feb-14 11:29N 34°34' E 135°27'0 0.0
2018-Feb-14 10:59N 34°34' E 135°27'0 0.0
2018-Feb-14 10:29N 34°34' E 135°27'0 0.0
2018-Feb-14 09:59N 34°34' E 135°27'0 0.0
2018-Feb-14 09:29N 34°34' E 135°27'0 0.0
2018-Feb-14 08:59N 34°34' E 135°27'4 8.1
2018-Feb-14 08:30N 34°36' E 135°23'510.7
2018-Feb-14 08:00N 34°35' E 135°17'511.0
2018-Feb-14 07:30N 34°35' E 135°10'611.5
2018-Feb-14 07:00N 34°36' E 135°03'612.1
2018-Feb-14 06:28N 34°36' E 134°55'612.3
2018-Feb-14 05:58N 34°33' E 134°49'511.6
2018-Feb-14 05:30N 34°31' E 134°42'611.6
2018-Feb-14 05:00N 34°29' E 134°36'14 0.6
2018-Feb-13 05:03N 34°39' E 134°49'1 9.9
2018-Feb-13 04:55N 34°38' E 134°50'4 9.0
2018-Feb-13 04:30N 34°38' E 134°55'5 9.4
2018-Feb-13 04:00N 34°38' E 135°00'4 8.3
2018-Feb-13 03:30N 34°36' E 135°05'510.5
2018-Feb-13 03:00N 34°36' E 135°12'510.8
2018-Feb-13 02:30N 34°36' E 135°18'510.0
2018-Feb-13 02:00N 34°38' E 135°24'1 1.2
2018-Feb-13 01:29N 34°38' E 135°25'0 0.0
2018-Feb-13 00:59N 34°38' E 135°25'0 0.0
2018-Feb-13 00:29N 34°38' E 135°25'0 0.0
2018-Feb-12 23:59N 34°38' E 135°25'0 0.0
2018-Feb-12 23:29N 34°38' E 135°25'0 0.0
2018-Feb-12 22:59N 34°38' E 135°25'1 2.2
2018-Feb-12 22:30N 34°38' E 135°24'3 6.1
2018-Feb-12 21:59N 34°40' E 135°27'0 0.0
2018-Feb-12 21:29N 34°40' E 135°27'0 0.0
2018-Feb-12 20:59N 34°40' E 135°27'0 0.0
2018-Feb-12 20:29N 34°40' E 135°27'0 0.0
2018-Feb-12 19:59N 34°40' E 135°27'0 0.0
2018-Feb-12 19:29N 34°40' E 135°27'0 0.0
2018-Feb-12 18:59N 34°40' E 135°27'0 0.0
2018-Feb-12 18:29N 34°40' E 135°27'0 0.0
2018-Feb-12 17:56N 34°40' E 135°27'0 0.0
2018-Feb-12 17:29N 34°40' E 135°27'0 0.0
2018-Feb-12 16:59N 34°40' E 135°27'0 0.0
2018-Feb-12 16:29N 34°40' E 135°27'0 0.0
2018-Feb-12 15:59N 34°40' E 135°27'0 0.0
2018-Feb-12 15:17N 34°40' E 135°27'0 0.0
2018-Feb-12 14:59N 34°40' E 135°27'0 0.0
2018-Feb-12 14:29N 34°40' E 135°27'0 0.0
2018-Feb-12 13:59N 34°40' E 135°27'0 0.0
2018-Feb-12 13:26N 34°40' E 135°27'0 0.0
2018-Feb-12 12:59N 34°40' E 135°27'0 0.0
2018-Feb-12 12:29N 34°40' E 135°27'0 0.0
2018-Feb-12 11:59N 34°40' E 135°27'0 0.0
2018-Feb-12 11:29N 34°40' E 135°27'0 0.0
2018-Feb-12 10:59N 34°40' E 135°27'0 0.0
2018-Feb-12 10:29N 34°40' E 135°27'0 0.0
2018-Feb-12 09:59N 34°40' E 135°27'0 0.0
2018-Feb-12 09:29N 34°40' E 135°27'0 0.0
2018-Feb-12 08:56N 34°40' E 135°27'0 0.0
2018-Feb-12 08:29N 34°40' E 135°27'0 0.0
2018-Feb-12 07:59N 34°40' E 135°27'0 0.0
2018-Feb-12 07:26N 34°40' E 135°27'0 0.0
2018-Feb-12 06:59N 34°40' E 135°27'0 0.0
2018-Feb-12 06:29N 34°40' E 135°27'0 0.0
2018-Feb-12 05:59N 34°40' E 135°27'0 0.0
2018-Feb-12 05:26N 34°40' E 135°27'0 0.0
2018-Feb-12 04:59N 34°40' E 135°27'0 0.0
2018-Feb-12 04:29N 34°40' E 135°27'0 0.0
2018-Feb-12 03:59N 34°40' E 135°27'  

Dump ship's entire track history